sensor_id;sensor_type;location;lat;lon;timestamp;temperature;humidity
42615;DHT22;28754;47.700;7.924;2024-01-10T00:00:17;-2.90;99.90
42615;DHT22;28754;47.700;7.924;2024-01-10T00:03:04;-2.90;99.90
42615;DHT22;28754;47.700;7.924;2024-01-10T00:05:51;-2.80;99.90
42615;DHT22;28754;47.700;7.924;2024-01-10T00:08:37;-2.90;99.90
42615;DHT22;28754;47.700;7.924;2024-01-10T00:11:24;-2.80;99.90
42615;DHT22;28754;47.700;7.924;2024-01-10T00:14:11;-2.70;99.90
42615;DHT22;28754;47.700;7.924;2024-01-10T00:16:57;-2.60;99.90
42615;DHT22;28754;47.700;7.924;2024-01-10T00:19:45;-2.60;99.90
42615;DHT22;28754;47.700;7.924;2024-01-10T00:22:31;-2.60;99.90
42615;DHT22;28754;47.700;7.924;2024-01-10T00:25:18;-2.60;99.90
42615;DHT22;28754;47.700;7.924;2024-01-10T00:28:05;-2.50;99.90
42615;DHT22;28754;47.700;7.924;2024-01-10T00:30:52;-2.50;99.90
42615;DHT22;28754;47.700;7.924;2024-01-10T00:33:39;-2.60;99.90
42615;DHT22;28754;47.700;7.924;2024-01-10T00:36:26;-2.50;99.90
42615;DHT22;28754;47.700;7.924;2024-01-10T00:39:13;-2.50;99.90
42615;DHT22;28754;47.700;7.924;2024-01-10T00:41:59;-2.50;99.90
42615;DHT22;28754;47.700;7.924;2024-01-10T00:44:46;-2.50;99.90
42615;DHT22;28754;47.700;7.924;2024-01-10T00:47:33;-2.50;99.90
42615;DHT22;28754;47.700;7.924;2024-01-10T00:50:19;-2.60;99.90
42615;DHT22;28754;47.700;7.924;2024-01-10T00:53:06;-2.60;99.90
42615;DHT22;28754;47.700;7.924;2024-01-10T00:55:53;-2.60;99.90
42615;DHT22;28754;47.700;7.924;2024-01-10T00:58:39;-2.60;99.90
42615;DHT22;28754;47.700;7.924;2024-01-10T01:01:26;-2.50;99.90
42615;DHT22;28754;47.700;7.924;2024-01-10T01:04:12;-2.50;99.90
42615;DHT22;28754;47.700;7.924;2024-01-10T01:06:59;-2.40;99.90
42615;DHT22;28754;47.700;7.924;2024-01-10T01:09:46;-2.50;99.90
42615;DHT22;28754;47.700;7.924;2024-01-10T01:12:32;-2.50;99.90
42615;DHT22;28754;47.700;7.924;2024-01-10T01:15:19;-2.60;99.90
42615;DHT22;28754;47.700;7.924;2024-01-10T01:18:06;-2.60;99.90
42615;DHT22;28754;47.700;7.924;2024-01-10T01:20:53;-2.70;99.90
42615;DHT22;28754;47.700;7.924;2024-01-10T01:23:39;-2.60;99.90
42615;DHT22;28754;47.700;7.924;2024-01-10T01:26:26;-2.70;99.90
42615;DHT22;28754;47.700;7.924;2024-01-10T01:29:12;-2.70;99.90
42615;DHT22;28754;47.700;7.924;2024-01-10T01:31:59;-2.60;99.90
42615;DHT22;28754;47.700;7.924;2024-01-10T01:34:46;-2.60;99.90
42615;DHT22;28754;47.700;7.924;2024-01-10T01:37:33;-2.60;99.90
42615;DHT22;28754;47.700;7.924;2024-01-10T01:40:20;-2.60;99.90
42615;DHT22;28754;47.700;7.924;2024-01-10T01:43:25;-2.70;99.90
42615;DHT22;28754;47.700;7.924;2024-01-10T01:46:12;-2.80;99.90
42615;DHT22;28754;47.700;7.924;2024-01-10T01:49:00;-2.80;99.90
42615;DHT22;28754;47.700;7.924;2024-01-10T01:51:46;-2.70;99.90
42615;DHT22;28754;47.700;7.924;2024-01-10T01:54:34;-2.80;99.90
42615;DHT22;28754;47.700;7.924;2024-01-10T01:57:21;-2.70;99.90
42615;DHT22;28754;47.700;7.924;2024-01-10T02:00:08;-2.70;99.90
42615;DHT22;28754;47.700;7.924;2024-01-10T02:02:57;-2.70;99.90
42615;DHT22;28754;47.700;7.924;2024-01-10T02:05:46;-2.70;99.90
42615;DHT22;28754;47.700;7.924;2024-01-10T02:08:34;-2.70;99.90
42615;DHT22;28754;47.700;7.924;2024-01-10T02:11:21;-2.70;99.90
42615;DHT22;28754;47.700;7.924;2024-01-10T02:14:10;-2.70;99.90
42615;DHT22;28754;47.700;7.924;2024-01-10T02:16:57;-2.60;99.90
42615;DHT22;28754;47.700;7.924;2024-01-10T02:19:43;-2.60;99.90
42615;DHT22;28754;47.700;7.924;2024-01-10T02:22:30;-2.50;99.90
42615;DHT22;28754;47.700;7.924;2024-01-10T02:25:17;-2.50;99.90
42615;DHT22;28754;47.700;7.924;2024-01-10T02:28:04;-2.50;99.90
42615;DHT22;28754;47.700;7.924;2024-01-10T02:30:53;-2.50;99.90
42615;DHT22;28754;47.700;7.924;2024-01-10T02:33:41;-2.40;99.90
42615;DHT22;28754;47.700;7.924;2024-01-10T02:36:27;-2.40;99.90
42615;DHT22;28754;47.700;7.924;2024-01-10T02:39:14;-2.40;99.90
42615;DHT22;28754;47.700;7.924;2024-01-10T02:42:00;-2.40;99.90
42615;DHT22;28754;47.700;7.924;2024-01-10T02:44:48;-2.30;99.90
42615;DHT22;28754;47.700;7.924;2024-01-10T02:47:34;-2.30;99.90
42615;DHT22;28754;47.700;7.924;2024-01-10T02:50:23;-2.40;99.90
42615;DHT22;28754;47.700;7.924;2024-01-10T02:53:09;-2.40;99.90
42615;DHT22;28754;47.700;7.924;2024-01-10T02:55:56;-2.30;99.90
42615;DHT22;28754;47.700;7.924;2024-01-10T02:58:43;-2.30;99.90
42615;DHT22;28754;47.700;7.924;2024-01-10T03:01:29;-2.30;99.90
42615;DHT22;28754;47.700;7.924;2024-01-10T03:04:16;-2.30;99.90
42615;DHT22;28754;47.700;7.924;2024-01-10T03:07:03;-2.20;99.90
42615;DHT22;28754;47.700;7.924;2024-01-10T03:09:50;-2.20;99.90
42615;DHT22;28754;47.700;7.924;2024-01-10T03:12:36;-2.10;99.90
42615;DHT22;28754;47.700;7.924;2024-01-10T03:15:24;-2.10;99.90
42615;DHT22;28754;47.700;7.924;2024-01-10T03:18:11;-2.10;99.90
42615;DHT22;28754;47.700;7.924;2024-01-10T03:20:58;-2.10;99.90
42615;DHT22;28754;47.700;7.924;2024-01-10T03:23:45;-2.10;99.90
42615;DHT22;28754;47.700;7.924;2024-01-10T03:26:31;-2.00;99.90
42615;DHT22;28754;47.700;7.924;2024-01-10T03:29:18;-2.10;99.90
42615;DHT22;28754;47.700;7.924;2024-01-10T03:32:05;-2.10;99.90
42615;DHT22;28754;47.700;7.924;2024-01-10T03:34:52;-2.20;99.90
42615;DHT22;28754;47.700;7.924;2024-01-10T03:37:38;-2.20;99.90
42615;DHT22;28754;47.700;7.924;2024-01-10T03:40:25;-2.30;99.90
42615;DHT22;28754;47.700;7.924;2024-01-10T03:43:11;-2.30;99.90
42615;DHT22;28754;47.700;7.924;2024-01-10T03:45:58;-2.30;99.90
42615;DHT22;28754;47.700;7.924;2024-01-10T03:48:45;-2.30;99.90
42615;DHT22;28754;47.700;7.924;2024-01-10T03:51:35;-2.40;99.90
42615;DHT22;28754;47.700;7.924;2024-01-10T03:54:22;-2.40;99.90
42615;DHT22;28754;47.700;7.924;2024-01-10T03:57:09;-2.40;99.90
42615;DHT22;28754;47.700;7.924;2024-01-10T03:59:55;-2.40;99.90
42615;DHT22;28754;47.700;7.924;2024-01-10T04:02:42;-2.30;99.90
42615;DHT22;28754;47.700;7.924;2024-01-10T04:05:28;-2.30;99.90
42615;DHT22;28754;47.700;7.924;2024-01-10T04:08:15;-2.30;99.90
42615;DHT22;28754;47.700;7.924;2024-01-10T04:11:02;-2.30;99.90
42615;DHT22;28754;47.700;7.924;2024-01-10T04:13:49;-2.20;99.90
42615;DHT22;28754;47.700;7.924;2024-01-10T04:16:36;-2.20;99.90
42615;DHT22;28754;47.700;7.924;2024-01-10T04:19:23;-2.30;99.90
42615;DHT22;28754;47.700;7.924;2024-01-10T04:22:09;-2.20;99.90
42615;DHT22;28754;47.700;7.924;2024-01-10T04:25:00;-2.00;99.90
42615;DHT22;28754;47.700;7.924;2024-01-10T04:27:48;-1.80;99.90
42615;DHT22;28754;47.700;7.924;2024-01-10T04:30:36;-1.80;99.90
42615;DHT22;28754;47.700;7.924;2024-01-10T04:33:23;-1.80;99.90
42615;DHT22;28754;47.700;7.924;2024-01-10T04:36:09;-1.90;99.90
42615;DHT22;28754;47.700;7.924;2024-01-10T04:38:56;-1.80;99.90
42615;DHT22;28754;47.700;7.924;2024-01-10T04:41:43;-1.80;99.90
42615;DHT22;28754;47.700;7.924;2024-01-10T04:44:30;-1.80;99.90
42615;DHT22;28754;47.700;7.924;2024-01-10T04:47:16;-1.80;99.90
42615;DHT22;28754;47.700;7.924;2024-01-10T04:50:03;-1.90;99.90
42615;DHT22;28754;47.700;7.924;2024-01-10T04:52:51;-1.80;99.90
42615;DHT22;28754;47.700;7.924;2024-01-10T04:55:37;-1.80;99.90
42615;DHT22;28754;47.700;7.924;2024-01-10T04:58:24;-1.70;99.90
42615;DHT22;28754;47.700;7.924;2024-01-10T05:01:11;-1.70;99.90
42615;DHT22;28754;47.700;7.924;2024-01-10T05:03:57;-1.70;99.90
42615;DHT22;28754;47.700;7.924;2024-01-10T05:06:44;-1.70;99.90
42615;DHT22;28754;47.700;7.924;2024-01-10T05:09:31;-2.10;99.90
42615;DHT22;28754;47.700;7.924;2024-01-10T05:12:18;-2.20;99.90
42615;DHT22;28754;47.700;7.924;2024-01-10T05:15:05;-2.30;99.90
42615;DHT22;28754;47.700;7.924;2024-01-10T05:17:52;-2.20;99.90
42615;DHT22;28754;47.700;7.924;2024-01-10T05:20:38;-2.00;99.90
42615;DHT22;28754;47.700;7.924;2024-01-10T05:23:25;-2.00;99.90
42615;DHT22;28754;47.700;7.924;2024-01-10T05:26:12;-2.00;99.90
42615;DHT22;28754;47.700;7.924;2024-01-10T05:28:59;-2.00;99.90
42615;DHT22;28754;47.700;7.924;2024-01-10T05:31:45;-1.90;99.90
42615;DHT22;28754;47.700;7.924;2024-01-10T05:34:32;-1.90;99.90
42615;DHT22;28754;47.700;7.924;2024-01-10T05:37:19;-1.90;99.90
42615;DHT22;28754;47.700;7.924;2024-01-10T05:40:06;-1.80;99.90
42615;DHT22;28754;47.700;7.924;2024-01-10T05:42:53;-1.80;99.90
42615;DHT22;28754;47.700;7.924;2024-01-10T05:45:40;-1.90;99.90
42615;DHT22;28754;47.700;7.924;2024-01-10T05:48:26;-1.90;99.90
42615;DHT22;28754;47.700;7.924;2024-01-10T05:51:13;-2.00;99.90
42615;DHT22;28754;47.700;7.924;2024-01-10T05:54:00;-2.00;99.90
42615;DHT22;28754;47.700;7.924;2024-01-10T05:56:47;-2.10;99.90
42615;DHT22;28754;47.700;7.924;2024-01-10T05:59:34;-2.00;99.90
42615;DHT22;28754;47.700;7.924;2024-01-10T06:02:22;-2.00;99.90
42615;DHT22;28754;47.700;7.924;2024-01-10T06:05:11;-2.00;99.90
42615;DHT22;28754;47.700;7.924;2024-01-10T06:07:57;-2.10;99.90
42615;DHT22;28754;47.700;7.924;2024-01-10T06:10:44;-2.10;99.90
42615;DHT22;28754;47.700;7.924;2024-01-10T06:13:33;-2.10;99.90
42615;DHT22;28754;47.700;7.924;2024-01-10T06:16:20;-2.10;99.90
42615;DHT22;28754;47.700;7.924;2024-01-10T06:19:07;-2.10;99.90
42615;DHT22;28754;47.700;7.924;2024-01-10T06:21:53;-2.20;99.90
42615;DHT22;28754;47.700;7.924;2024-01-10T06:24:40;-2.20;99.90
42615;DHT22;28754;47.700;7.924;2024-01-10T06:27:29;-2.30;99.90
42615;DHT22;28754;47.700;7.924;2024-01-10T06:30:16;-2.30;99.90
42615;DHT22;28754;47.700;7.924;2024-01-10T06:33:03;-2.30;99.90
42615;DHT22;28754;47.700;7.924;2024-01-10T06:35:53;-2.30;99.90
42615;DHT22;28754;47.700;7.924;2024-01-10T06:38:40;-2.30;99.90
42615;DHT22;28754;47.700;7.924;2024-01-10T06:41:27;-2.20;99.90
42615;DHT22;28754;47.700;7.924;2024-01-10T06:44:18;-2.10;99.90
42615;DHT22;28754;47.700;7.924;2024-01-10T06:47:05;-2.10;99.90
42615;DHT22;28754;47.700;7.924;2024-01-10T06:49:51;-2.00;99.90
42615;DHT22;28754;47.700;7.924;2024-01-10T06:52:38;-1.90;99.90
42615;DHT22;28754;47.700;7.924;2024-01-10T06:55:24;-1.90;99.90
42615;DHT22;28754;47.700;7.924;2024-01-10T06:58:12;-1.90;99.90
42615;DHT22;28754;47.700;7.924;2024-01-10T07:00:59;-1.80;99.90
42615;DHT22;28754;47.700;7.924;2024-01-10T07:03:52;-1.80;99.90
42615;DHT22;28754;47.700;7.924;2024-01-10T07:06:40;-1.70;99.90
42615;DHT22;28754;47.700;7.924;2024-01-10T07:09:27;-1.40;99.90
42615;DHT22;28754;47.700;7.924;2024-01-10T07:12:14;-1.20;99.90
42615;DHT22;28754;47.700;7.924;2024-01-10T07:15:00;-1.10;99.90
42615;DHT22;28754;47.700;7.924;2024-01-10T07:17:49;-1.30;99.90
42615;DHT22;28754;47.700;7.924;2024-01-10T07:20:36;-1.00;99.90
42615;DHT22;28754;47.700;7.924;2024-01-10T07:23:24;-0.90;99.90
42615;DHT22;28754;47.700;7.924;2024-01-10T07:26:13;-1.00;99.90
42615;DHT22;28754;47.700;7.924;2024-01-10T07:29:01;-0.80;99.90
42615;DHT22;28754;47.700;7.924;2024-01-10T07:31:48;-0.80;99.90
42615;DHT22;28754;47.700;7.924;2024-01-10T07:34:35;-0.20;99.90
42615;DHT22;28754;47.700;7.924;2024-01-10T07:37:22;0.40;99.90
42615;DHT22;28754;47.700;7.924;2024-01-10T07:40:09;-0.20;99.90
42615;DHT22;28754;47.700;7.924;2024-01-10T07:42:57;-0.40;99.90
42615;DHT22;28754;47.700;7.924;2024-01-10T07:45:44;-0.60;99.90
42615;DHT22;28754;47.700;7.924;2024-01-10T07:48:30;-0.80;99.90
42615;DHT22;28754;47.700;7.924;2024-01-10T07:51:17;-0.80;99.90
42615;DHT22;28754;47.700;7.924;2024-01-10T07:54:04;-0.70;99.90
42615;DHT22;28754;47.700;7.924;2024-01-10T07:56:50;-0.70;99.90
42615;DHT22;28754;47.700;7.924;2024-01-10T07:59:39;-0.70;99.90
42615;DHT22;28754;47.700;7.924;2024-01-10T08:02:26;-0.80;99.90
42615;DHT22;28754;47.700;7.924;2024-01-10T08:05:13;-0.90;99.90
42615;DHT22;28754;47.700;7.924;2024-01-10T08:07:59;-0.90;99.90
42615;DHT22;28754;47.700;7.924;2024-01-10T08:10:46;-0.90;99.90
42615;DHT22;28754;47.700;7.924;2024-01-10T08:13:32;-1.00;99.90
42615;DHT22;28754;47.700;7.924;2024-01-10T08:16:19;-1.00;99.90
42615;DHT22;28754;47.700;7.924;2024-01-10T08:19:06;-1.00;99.90
42615;DHT22;28754;47.700;7.924;2024-01-10T08:21:54;-0.90;99.90
42615;DHT22;28754;47.700;7.924;2024-01-10T08:24:40;-0.80;99.90
42615;DHT22;28754;47.700;7.924;2024-01-10T08:27:27;-0.70;99.90
42615;DHT22;28754;47.700;7.924;2024-01-10T08:30:14;-0.60;99.90
42615;DHT22;28754;47.700;7.924;2024-01-10T08:33:00;-0.50;99.90
42615;DHT22;28754;47.700;7.924;2024-01-10T08:35:47;-0.40;99.90
42615;DHT22;28754;47.700;7.924;2024-01-10T08:38:34;-0.20;99.90
42615;DHT22;28754;47.700;7.924;2024-01-10T08:41:21;-0.20;99.90
42615;DHT22;28754;47.700;7.924;2024-01-10T08:44:08;0.00;99.90
42615;DHT22;28754;47.700;7.924;2024-01-10T08:46:54;0.10;99.90
42615;DHT22;28754;47.700;7.924;2024-01-10T08:49:41;0.10;99.90
42615;DHT22;28754;47.700;7.924;2024-01-10T08:52:28;0.10;99.90
42615;DHT22;28754;47.700;7.924;2024-01-10T08:55:14;0.10;99.90
42615;DHT22;28754;47.700;7.924;2024-01-10T08:58:01;0.10;99.90
42615;DHT22;28754;47.700;7.924;2024-01-10T09:00:48;0.50;99.90
42615;DHT22;28754;47.700;7.924;2024-01-10T09:03:34;0.60;99.90
42615;DHT22;28754;47.700;7.924;2024-01-10T09:06:21;0.60;99.90
42615;DHT22;28754;47.700;7.924;2024-01-10T09:09:08;0.50;99.90
42615;DHT22;28754;47.700;7.924;2024-01-10T09:11:54;0.60;99.90
42615;DHT22;28754;47.700;7.924;2024-01-10T09:14:41;0.70;99.90
42615;DHT22;28754;47.700;7.924;2024-01-10T09:17:28;0.70;99.90
42615;DHT22;28754;47.700;7.924;2024-01-10T09:20:15;0.80;99.90
42615;DHT22;28754;47.700;7.924;2024-01-10T09:23:02;1.10;99.90
42615;DHT22;28754;47.700;7.924;2024-01-10T09:25:49;1.20;99.90
42615;DHT22;28754;47.700;7.924;2024-01-10T09:28:35;1.20;99.90
42615;DHT22;28754;47.700;7.924;2024-01-10T09:31:22;1.30;99.90
42615;DHT22;28754;47.700;7.924;2024-01-10T09:34:09;1.30;99.90
42615;DHT22;28754;47.700;7.924;2024-01-10T09:36:55;1.40;99.90
42615;DHT22;28754;47.700;7.924;2024-01-10T09:39:42;1.70;99.90
42615;DHT22;28754;47.700;7.924;2024-01-10T09:42:30;1.60;99.90
42615;DHT22;28754;47.700;7.924;2024-01-10T09:45:18;1.60;99.90
42615;DHT22;28754;47.700;7.924;2024-01-10T09:48:06;1.60;99.90
42615;DHT22;28754;47.700;7.924;2024-01-10T09:50:53;1.80;99.90
42615;DHT22;28754;47.700;7.924;2024-01-10T09:53:48;2.00;99.90
42615;DHT22;28754;47.700;7.924;2024-01-10T09:56:37;2.10;99.90
42615;DHT22;28754;47.700;7.924;2024-01-10T09:59:24;1.80;99.90
42615;DHT22;28754;47.700;7.924;2024-01-10T10:02:11;1.70;99.90
42615;DHT22;28754;47.700;7.924;2024-01-10T10:05:25;1.50;99.90
42615;DHT22;28754;47.700;7.924;2024-01-10T10:08:12;1.50;99.90
42615;DHT22;28754;47.700;7.924;2024-01-10T10:11:14;1.50;99.90
42615;DHT22;28754;47.700;7.924;2024-01-10T10:14:15;1.60;99.90
42615;DHT22;28754;47.700;7.924;2024-01-10T10:17:14;1.80;99.90
42615;DHT22;28754;47.700;7.924;2024-01-10T10:20:05;2.10;99.90
42615;DHT22;28754;47.700;7.924;2024-01-10T10:23:03;2.30;99.90
42615;DHT22;28754;47.700;7.924;2024-01-10T10:25:51;2.60;99.90
42615;DHT22;28754;47.700;7.924;2024-01-10T10:28:38;2.90;99.90
42615;DHT22;28754;47.700;7.924;2024-01-10T10:31:26;3.10;99.90
42615;DHT22;28754;47.700;7.924;2024-01-10T10:34:20;3.10;99.90
42615;DHT22;28754;47.700;7.924;2024-01-10T10:37:08;3.10;99.90
42615;DHT22;28754;47.700;7.924;2024-01-10T10:39:55;2.80;99.90
42615;DHT22;28754;47.700;7.924;2024-01-10T10:42:49;2.70;99.90
42615;DHT22;28754;47.700;7.924;2024-01-10T10:45:47;2.60;99.90
42615;DHT22;28754;47.700;7.924;2024-01-10T10:48:36;2.60;99.90
42615;DHT22;28754;47.700;7.924;2024-01-10T10:51:33;2.50;99.90
42615;DHT22;28754;47.700;7.924;2024-01-10T10:54:21;2.80;99.90
42615;DHT22;28754;47.700;7.924;2024-01-10T10:57:09;3.40;99.90
42615;DHT22;28754;47.700;7.924;2024-01-10T10:59:57;3.50;99.90
42615;DHT22;28754;47.700;7.924;2024-01-10T11:02:44;3.80;99.90
42615;DHT22;28754;47.700;7.924;2024-01-10T11:05:32;3.70;99.90
42615;DHT22;28754;47.700;7.924;2024-01-10T11:08:20;4.10;99.90
42615;DHT22;28754;47.700;7.924;2024-01-10T11:15:04;4.20;99.90
42615;DHT22;28754;47.700;7.924;2024-01-10T11:22:08;4.20;99.90
42615;DHT22;28754;47.700;7.924;2024-01-10T11:25:06;4.80;99.90
42615;DHT22;28754;47.700;7.924;2024-01-10T11:27:53;6.20;99.90
42615;DHT22;28754;47.700;7.924;2024-01-10T11:30:58;7.40;99.90
42615;DHT22;28754;47.700;7.924;2024-01-10T11:33:45;6.60;99.90
42615;DHT22;28754;47.700;7.924;2024-01-10T11:36:36;7.20;99.90
42615;DHT22;28754;47.700;7.924;2024-01-10T11:39:22;8.80;99.90
42615;DHT22;28754;47.700;7.924;2024-01-10T11:42:09;7.20;99.90
42615;DHT22;28754;47.700;7.924;2024-01-10T11:44:55;10.50;99.90
42615;DHT22;28754;47.700;7.924;2024-01-10T11:47:42;9.80;99.90
42615;DHT22;28754;47.700;7.924;2024-01-10T11:50:29;8.90;99.90
42615;DHT22;28754;47.700;7.924;2024-01-10T11:53:38;10.40;99.90
42615;DHT22;28754;47.700;7.924;2024-01-10T11:56:39;12.30;99.90
42615;DHT22;28754;47.700;7.924;2024-01-10T11:59:26;10.40;99.90
42615;DHT22;28754;47.700;7.924;2024-01-10T12:02:14;11.90;99.90
42615;DHT22;28754;47.700;7.924;2024-01-10T12:05:01;13.10;99.90
42615;DHT22;28754;47.700;7.924;2024-01-10T12:07:50;12.30;99.90
42615;DHT22;28754;47.700;7.924;2024-01-10T12:10:38;14.10;99.90
42615;DHT22;28754;47.700;7.924;2024-01-10T12:13:25;14.20;99.90
42615;DHT22;28754;47.700;7.924;2024-01-10T12:16:12;13.90;99.90
42615;DHT22;28754;47.700;7.924;2024-01-10T12:19:00;14.80;99.90
42615;DHT22;28754;47.700;7.924;2024-01-10T12:21:48;14.80;99.90
42615;DHT22;28754;47.700;7.924;2024-01-10T12:24:48;15.20;99.90
42615;DHT22;28754;47.700;7.924;2024-01-10T12:27:35;14.10;99.90
42615;DHT22;28754;47.700;7.924;2024-01-10T12:30:22;14.90;99.90
42615;DHT22;28754;47.700;7.924;2024-01-10T12:33:09;15.10;99.90
42615;DHT22;28754;47.700;7.924;2024-01-10T12:36:09;15.40;99.90
42615;DHT22;28754;47.700;7.924;2024-01-10T12:38:56;15.50;99.90
42615;DHT22;28754;47.700;7.924;2024-01-10T12:41:43;15.60;99.90
42615;DHT22;28754;47.700;7.924;2024-01-10T12:44:30;16.10;99.90
42615;DHT22;28754;47.700;7.924;2024-01-10T12:47:21;16.60;99.90
42615;DHT22;28754;47.700;7.924;2024-01-10T12:50:09;16.50;99.90
42615;DHT22;28754;47.700;7.924;2024-01-10T12:52:56;16.60;99.90
42615;DHT22;28754;47.700;7.924;2024-01-10T12:55:44;16.50;99.90
42615;DHT22;28754;47.700;7.924;2024-01-10T12:58:31;16.50;99.90
42615;DHT22;28754;47.700;7.924;2024-01-10T13:01:19;16.90;99.90
42615;DHT22;28754;47.700;7.924;2024-01-10T13:04:06;16.70;99.90
42615;DHT22;28754;47.700;7.924;2024-01-10T13:06:53;16.50;99.90
42615;DHT22;28754;47.700;7.924;2024-01-10T13:09:39;16.60;99.90
42615;DHT22;28754;47.700;7.924;2024-01-10T13:12:26;16.80;99.90
42615;DHT22;28754;47.700;7.924;2024-01-10T13:15:13;17.00;99.90
42615;DHT22;28754;47.700;7.924;2024-01-10T13:17:59;17.10;99.90
42615;DHT22;28754;47.700;7.924;2024-01-10T13:20:46;17.10;99.90
42615;DHT22;28754;47.700;7.924;2024-01-10T13:23:33;16.70;99.90
42615;DHT22;28754;47.700;7.924;2024-01-10T13:26:21;15.60;99.90
42615;DHT22;28754;47.700;7.924;2024-01-10T13:29:07;14.60;99.90
42615;DHT22;28754;47.700;7.924;2024-01-10T13:31:54;13.70;99.90
42615;DHT22;28754;47.700;7.924;2024-01-10T13:34:41;12.30;99.90
42615;DHT22;28754;47.700;7.924;2024-01-10T13:37:27;11.50;99.90
42615;DHT22;28754;47.700;7.924;2024-01-10T13:40:15;9.70;99.90
42615;DHT22;28754;47.700;7.924;2024-01-10T13:43:02;7.80;99.90
42615;DHT22;28754;47.700;7.924;2024-01-10T13:45:49;7.00;99.90
42615;DHT22;28754;47.700;7.924;2024-01-10T13:48:36;6.30;99.90
42615;DHT22;28754;47.700;7.924;2024-01-10T13:51:27;5.90;99.90
42615;DHT22;28754;47.700;7.924;2024-01-10T13:54:13;5.70;99.90
42615;DHT22;28754;47.700;7.924;2024-01-10T13:57:00;5.50;99.90
42615;DHT22;28754;47.700;7.924;2024-01-10T13:59:47;5.40;99.90
42615;DHT22;28754;47.700;7.924;2024-01-10T14:02:35;5.10;99.90
42615;DHT22;28754;47.700;7.924;2024-01-10T14:05:22;4.90;99.90
42615;DHT22;28754;47.700;7.924;2024-01-10T14:08:08;4.80;99.90
42615;DHT22;28754;47.700;7.924;2024-01-10T14:10:55;4.70;99.90
42615;DHT22;28754;47.700;7.924;2024-01-10T14:13:42;4.50;99.90
42615;DHT22;28754;47.700;7.924;2024-01-10T14:16:28;4.50;99.90
42615;DHT22;28754;47.700;7.924;2024-01-10T14:19:15;4.50;99.90
42615;DHT22;28754;47.700;7.924;2024-01-10T14:22:05;4.30;99.90
42615;DHT22;28754;47.700;7.924;2024-01-10T14:24:52;4.30;99.90
42615;DHT22;28754;47.700;7.924;2024-01-10T14:27:40;4.20;99.90
42615;DHT22;28754;47.700;7.924;2024-01-10T14:30:27;4.20;99.90
42615;DHT22;28754;47.700;7.924;2024-01-10T14:33:14;4.20;99.90
42615;DHT22;28754;47.700;7.924;2024-01-10T14:36:00;4.20;99.90
42615;DHT22;28754;47.700;7.924;2024-01-10T14:38:47;4.10;99.90
42615;DHT22;28754;47.700;7.924;2024-01-10T14:41:34;3.90;99.90
42615;DHT22;28754;47.700;7.924;2024-01-10T14:44:20;3.80;99.90
42615;DHT22;28754;47.700;7.924;2024-01-10T14:47:07;3.80;99.90
42615;DHT22;28754;47.700;7.924;2024-01-10T14:49:54;3.70;99.90
42615;DHT22;28754;47.700;7.924;2024-01-10T14:52:40;3.60;99.90
42615;DHT22;28754;47.700;7.924;2024-01-10T14:55:27;3.60;99.90
42615;DHT22;28754;47.700;7.924;2024-01-10T14:58:15;3.50;99.90
42615;DHT22;28754;47.700;7.924;2024-01-10T15:01:01;3.40;99.90
42615;DHT22;28754;47.700;7.924;2024-01-10T15:03:48;3.30;99.90
42615;DHT22;28754;47.700;7.924;2024-01-10T15:06:45;3.20;99.90
42615;DHT22;28754;47.700;7.924;2024-01-10T15:09:33;3.20;99.90
42615;DHT22;28754;47.700;7.924;2024-01-10T15:12:22;3.10;99.90
42615;DHT22;28754;47.700;7.924;2024-01-10T15:15:09;3.10;99.90
42615;DHT22;28754;47.700;7.924;2024-01-10T15:17:56;3.00;99.90
42615;DHT22;28754;47.700;7.924;2024-01-10T15:20:43;3.00;99.90
42615;DHT22;28754;47.700;7.924;2024-01-10T15:23:30;3.00;99.90
42615;DHT22;28754;47.700;7.924;2024-01-10T15:26:17;2.90;99.90
42615;DHT22;28754;47.700;7.924;2024-01-10T15:29:08;2.90;99.90
42615;DHT22;28754;47.700;7.924;2024-01-10T15:31:54;2.80;99.90
42615;DHT22;28754;47.700;7.924;2024-01-10T15:34:41;2.80;99.90
42615;DHT22;28754;47.700;7.924;2024-01-10T15:37:28;2.80;99.90
42615;DHT22;28754;47.700;7.924;2024-01-10T15:40:14;2.70;99.90
42615;DHT22;28754;47.700;7.924;2024-01-10T15:43:01;2.70;99.90
42615;DHT22;28754;47.700;7.924;2024-01-10T15:45:48;2.70;99.90
42615;DHT22;28754;47.700;7.924;2024-01-10T15:48:35;2.60;99.90
42615;DHT22;28754;47.700;7.924;2024-01-10T15:51:22;2.60;99.90
42615;DHT22;28754;47.700;7.924;2024-01-10T15:54:08;2.50;99.90
42615;DHT22;28754;47.700;7.924;2024-01-10T15:56:55;2.50;99.90
42615;DHT22;28754;47.700;7.924;2024-01-10T15:59:42;2.40;99.90
42615;DHT22;28754;47.700;7.924;2024-01-10T16:02:29;2.40;99.90
42615;DHT22;28754;47.700;7.924;2024-01-10T16:05:17;2.40;99.90
42615;DHT22;28754;47.700;7.924;2024-01-10T16:08:04;2.30;99.90
42615;DHT22;28754;47.700;7.924;2024-01-10T16:10:52;2.30;99.90
42615;DHT22;28754;47.700;7.924;2024-01-10T16:13:38;2.30;99.90
42615;DHT22;28754;47.700;7.924;2024-01-10T16:16:28;2.20;99.90
42615;DHT22;28754;47.700;7.924;2024-01-10T16:19:15;2.20;99.90
42615;DHT22;28754;47.700;7.924;2024-01-10T16:22:02;2.20;99.90
42615;DHT22;28754;47.700;7.924;2024-01-10T16:24:48;2.20;99.90
42615;DHT22;28754;47.700;7.924;2024-01-10T16:27:35;2.10;99.90
42615;DHT22;28754;47.700;7.924;2024-01-10T16:30:22;2.10;99.90
42615;DHT22;28754;47.700;7.924;2024-01-10T16:33:08;2.10;99.90
42615;DHT22;28754;47.700;7.924;2024-01-10T16:35:55;2.20;99.90
42615;DHT22;28754;47.700;7.924;2024-01-10T16:38:42;2.20;99.90
42615;DHT22;28754;47.700;7.924;2024-01-10T16:41:28;2.20;99.90
42615;DHT22;28754;47.700;7.924;2024-01-10T16:44:15;2.20;99.90
42615;DHT22;28754;47.700;7.924;2024-01-10T16:47:02;2.20;99.90
42615;DHT22;28754;47.700;7.924;2024-01-10T16:49:49;2.20;99.90
42615;DHT22;28754;47.700;7.924;2024-01-10T16:52:36;2.20;99.90
42615;DHT22;28754;47.700;7.924;2024-01-10T16:55:22;2.20;99.90
42615;DHT22;28754;47.700;7.924;2024-01-10T16:58:09;2.10;99.90
42615;DHT22;28754;47.700;7.924;2024-01-10T17:00:56;2.10;99.90
42615;DHT22;28754;47.700;7.924;2024-01-10T17:03:43;2.10;99.90
42615;DHT22;28754;47.700;7.924;2024-01-10T17:06:30;2.10;99.90
42615;DHT22;28754;47.700;7.924;2024-01-10T17:09:16;2.00;99.90
42615;DHT22;28754;47.700;7.924;2024-01-10T17:12:03;2.00;99.90
42615;DHT22;28754;47.700;7.924;2024-01-10T17:14:50;2.00;99.90
42615;DHT22;28754;47.700;7.924;2024-01-10T17:17:37;2.00;99.90
42615;DHT22;28754;47.700;7.924;2024-01-10T17:20:23;1.90;99.90
42615;DHT22;28754;47.700;7.924;2024-01-10T17:23:12;1.90;99.90
42615;DHT22;28754;47.700;7.924;2024-01-10T17:26:01;1.90;99.90
42615;DHT22;28754;47.700;7.924;2024-01-10T17:28:49;1.90;99.90
42615;DHT22;28754;47.700;7.924;2024-01-10T17:31:36;1.90;99.90
42615;DHT22;28754;47.700;7.924;2024-01-10T17:34:23;1.80;99.90
42615;DHT22;28754;47.700;7.924;2024-01-10T17:37:09;1.80;99.90
42615;DHT22;28754;47.700;7.924;2024-01-10T17:39:56;1.80;99.90
42615;DHT22;28754;47.700;7.924;2024-01-10T17:42:43;1.80;99.90
42615;DHT22;28754;47.700;7.924;2024-01-10T17:45:29;1.70;99.90
42615;DHT22;28754;47.700;7.924;2024-01-10T17:48:16;1.80;99.90
42615;DHT22;28754;47.700;7.924;2024-01-10T17:51:03;1.70;99.90
42615;DHT22;28754;47.700;7.924;2024-01-10T17:53:50;1.70;99.90